Flight Track Log - Related Links

Times and Time Zones

All times are in EDT time to prevent confusion due to time zone crossing. See the ASQ4233 flight status page for this flight to view local times or setup timezone preferences in your user account.

Time Position Orientation Groundspeed Altitude Reporting Facility
EDT Latitude Longitude Course Direction KTS MPH feet Rate Location/Type
Tue 09:46:38 AM 44.3111 -73.1711 197° South 234 269 8,700  Level Boston Center
Tue 09:47:00 AM 44.1565 -73.2609 190° South  Level FlightAware Approximate
Tue 09:47:38 AM 44.2400 -73.1992 196° South 245 282 10,600  Level Boston Center
Tue 09:48:00 AM 44.0773 -73.2807 190° South  Level FlightAware Approximate
Tue 09:48:38 AM 44.1564 -73.2331 196° South 288 331 11,400  Level Boston Center
Tue 09:49:00 AM 43.9997 -73.3102 196° South  Level FlightAware Approximate
Tue 09:49:38 AM 44.0667 -73.2692 196° South 333 383 13,200  Level Boston Center
Tue 09:50:00 AM 43.9224 -73.3411 196° South  Level FlightAware Approximate
Tue 09:50:38 AM 43.9747 -73.3083 197° South 346 398 14,900  Level Boston Center
Tue 09:51:00 AM 43.8444 -73.3686 194° South  Level FlightAware Approximate
Tue 09:51:38 AM 43.8786 -73.3444 195° South 351 404 16,200  Level Boston Center
Tue 09:52:38 AM 43.7803 -73.3861 197° South 362 417 17,600 1,150 Climbing Boston Center
Tue 09:53:38 AM 43.6800 -73.4278 197° South 367 422 18,500 1,050 Climbing Boston Center
Tue 09:54:38 AM 43.5858 -73.4606 194° South 380 437 19,700 1,250 Climbing Boston Center
Tue 09:55:38 AM 43.4792 -73.5044 197° South 386 444 21,000 1,150 Climbing Boston Center
Tue 09:56:38 AM 43.3703 -73.5453 195° South 397 457 22,000 500 Climbing Boston Center
Tue 09:57:38 AM 43.2553 -73.5889 195° South 418 481 22,000 -50 Level Boston Center
Tue 09:58:38 AM 43.1256 -73.6461 198° South 446 513 21,900 -1,000 Descending Boston Center
Tue 09:59:38 AM 43.0106 -73.6922 196° South 446 513 20,000 -1,950 Descending Boston Center
Tue 10:00:38 AM 42.8994 -73.7411 198° South 432 497 18,000 -1,750 Descending Boston Center
Tue 10:01:38 AM 42.7967 -73.7897 199° South 413 475 16,500 -1,000 Descending Boston Center
Tue 10:02:38 AM 42.6919 -73.8328 197° South 407 468 16,000 -200 Descending Boston Center
Tue 10:03:38 AM 42.5850 -73.8783 197° South 407 468 16,100 50 Climbing Boston Center
Tue 10:04:38 AM 42.4886 -73.9211 198° South 407 468 16,100  Level Boston Center
Tue 10:05:38 AM 42.3714 -73.9717 198° South 407 468 16,100  Level Boston Center
Tue 10:06:38 AM 42.2747 -74.0169 199° South 407 468 16,100 -50 Level Boston Center
Tue 10:07:38 AM 42.1575 -74.0672 198° South 407 468 16,000 -150 Descending Boston Center
Tue 10:08:38 AM 42.0503 -74.1147 198° South 407 468 15,800 -1,000 Descending Boston Center
Tue 10:09:38 AM 41.9581 -74.1542 198° South 400 460 14,000 -1,950 Descending Boston Center
Tue 10:10:38 AM 41.8489 -74.2014 198° South 387 445 11,900 -1,600 Descending Boston Center
Tue 10:11:38 AM 41.7692 -74.2383 199° South 364 419 10,800 -1,350 Descending Boston Center
Tue 10:12:38 AM 41.6875 -74.2719 197° South 310 357 9,200 -1,650 Descending Boston Center
Tue 10:13:38 AM 41.6139 -74.3033 198° South 281 323 7,500 -1,100 Descending Boston Center
Tue 10:14:38 AM 41.5447 -74.3344 199° South 269 310 7,000 -152 Descending Boston Center
Tue 10:16:16 AM 41.4333 -74.3833 198° South 264 304 7,100 37 Climbing New York TRACON
Tue 10:17:22 AM 41.3500 -74.4167 197° South 261 300 7,100  Level New York TRACON
Tue 10:18:16 AM 41.3000 -74.4500 207° Southwest 266 306 7,100  Level New York TRACON
Tue 10:19:16 AM 41.2167 -74.4667 189° South 266 306 7,100  Level New York TRACON
Tue 10:20:16 AM 41.1500 -74.4833 191° South 266 306 7,100 -100 Level New York TRACON
Tue 10:21:16 AM 41.0667 -74.4833 180° South 264 304 6,900 -500 Descending New York TRACON
Tue 10:22:16 AM 41.0000 -74.5000 191° South 265 305 6,100 -381 Descending New York TRACON
Tue 10:23:22 AM 40.9167 -74.5167 189° South 257 296 6,100  Level New York TRACON
Tue 10:24:16 AM 40.8500 -74.5167 180° South 263 303 6,100  Level New York TRACON
Tue 10:25:16 AM 40.7833 -74.5333 191° South 266 306 6,100  Level New York TRACON
Tue 10:26:16 AM 40.7000 -74.5333 180° South 267 307 6,100 -316 Level New York TRACON
Tue 10:27:10 AM 40.6667 -74.5000 143° Southeast 242 278 5,500 -1,333 Descending New York TRACON
Tue 10:28:22 AM 40.6000 -74.4167 136° Southeast 242 278 3,300 -1,143 Descending New York TRACON
Tue 10:29:16 AM 40.5667 -74.3500 123° Southeast 236 272 3,100 -389 Descending New York TRACON
Tue 10:30:10 AM 40.5667 -74.3000 90° East 220 253 2,600 -650 Descending New York TRACON
Tue 10:31:16 AM 40.6000 -74.2500 49° Northeast 134 154 1,800 -727 Descending New York TRACON

Login

Don't have an account? Register now (free) for customized features, flight alerts, and more!